createdAt,value
2018-11-25T00:01:41.659Z,83.50
2018-11-25T00:04:09.995Z,83.40
2018-11-25T00:06:38.316Z,83.40
2018-11-25T00:09:08.452Z,83.40
2018-11-25T00:11:36.754Z,83.30
2018-11-25T00:14:05.062Z,83.20
2018-11-25T00:16:33.329Z,83.20
2018-11-25T00:19:01.679Z,83.10
2018-11-25T00:21:30.051Z,83.10
2018-11-25T00:23:58.388Z,83.20
2018-11-25T00:26:27.110Z,83.20
2018-11-25T00:28:55.447Z,83.20
2018-11-25T00:31:23.743Z,83.20
2018-11-25T00:33:52.090Z,83.10
2018-11-25T00:36:20.439Z,83.10
2018-11-25T00:38:48.898Z,83.10
2018-11-25T00:41:18.175Z,83.20
2018-11-25T00:43:46.680Z,83.20
2018-11-25T00:46:14.973Z,83.10
2018-11-25T00:48:43.281Z,83.10
2018-11-25T00:51:11.696Z,83.10
2018-11-25T00:53:40.007Z,83.00
2018-11-25T00:56:08.518Z,83.10
2018-11-25T00:58:36.934Z,83.10
2018-11-25T01:01:05.589Z,83.00
2018-11-25T01:03:33.844Z,83.10
2018-11-25T01:06:02.122Z,83.10
2018-11-25T01:08:30.402Z,83.10
2018-11-25T01:10:58.697Z,83.10
2018-11-25T01:13:27.655Z,83.10
2018-11-25T01:15:56.593Z,83.20
2018-11-25T01:18:24.982Z,83.20
2018-11-25T01:20:53.391Z,83.20
2018-11-25T01:23:22.371Z,83.20
2018-11-25T01:25:50.709Z,83.20
2018-11-25T01:28:18.998Z,83.20
2018-11-25T01:30:47.333Z,83.10
2018-11-25T01:33:15.815Z,83.00
2018-11-25T01:35:44.118Z,83.00
2018-11-25T01:38:12.417Z,82.90
2018-11-25T01:40:40.862Z,82.90
2018-11-25T01:43:09.252Z,82.90
2018-11-25T01:45:37.793Z,83.00
2018-11-25T01:48:06.169Z,83.10
2018-11-25T01:50:34.517Z,83.10
2018-11-25T01:53:02.788Z,83.20
2018-11-25T01:55:31.659Z,83.10
2018-11-25T01:57:59.954Z,83.10
2018-11-25T02:00:28.332Z,83.00
2018-11-25T02:02:56.675Z,82.70
2018-11-25T02:05:24.992Z,82.60
2018-11-25T02:07:53.297Z,82.70
2018-11-25T02:10:21.615Z,82.60
2018-11-25T02:12:49.981Z,82.70
2018-11-25T02:15:18.220Z,82.80
2018-11-25T02:17:46.543Z,82.60
2018-11-25T02:20:18.332Z,82.60
2018-11-25T02:22:46.790Z,82.80
2018-11-25T02:25:15.086Z,83.00
2018-11-25T02:27:43.811Z,83.20
2018-11-25T02:30:14.736Z,83.20
2018-11-25T02:32:43.019Z,83.20
2018-11-25T02:35:12.370Z,83.20
2018-11-25T02:37:40.684Z,83.10
2018-11-25T02:40:11.997Z,83.00
2018-11-25T02:42:40.411Z,83.10
2018-11-25T02:45:15.164Z,83.10
2018-11-25T02:47:43.980Z,83.10
2018-11-25T02:50:23.896Z,83.10
2018-11-25T02:52:54.165Z,83.10
2018-11-25T02:55:23.541Z,83.10
2018-11-25T02:57:52.019Z,83.10
2018-11-25T03:00:20.360Z,83.10
2018-11-25T03:02:48.907Z,83.20
2018-11-25T03:05:17.261Z,83.10
2018-11-25T03:07:45.607Z,83.10
2018-11-25T03:10:14.084Z,83.10
2018-11-25T03:12:42.406Z,83.20
2018-11-25T03:15:12.072Z,83.10
2018-11-25T03:17:40.399Z,83.20
2018-11-25T03:20:11.155Z,83.20
2018-11-25T03:22:39.569Z,83.20
2018-11-25T03:25:11.195Z,83.20
2018-11-25T03:27:39.467Z,83.30
2018-11-25T03:30:11.164Z,83.30
2018-11-25T03:32:39.486Z,83.30
2018-11-25T03:35:09.248Z,83.40
2018-11-25T03:37:37.875Z,83.30
2018-11-25T03:40:08.706Z,83.40
2018-11-25T03:42:37.082Z,83.40
2018-11-25T03:45:08.662Z,83.40
2018-11-25T03:47:37.071Z,83.50
2018-11-25T03:50:06.553Z,83.30
2018-11-25T03:52:34.966Z,83.40
2018-11-25T03:55:03.381Z,83.30
2018-11-25T03:57:31.709Z,83.40
2018-11-25T04:00:00.067Z,83.40
2018-11-25T04:02:28.366Z,83.40
2018-11-25T04:04:56.700Z,83.40
2018-11-25T04:07:24.977Z,83.40
2018-11-25T04:09:53.292Z,83.50
2018-11-25T04:12:21.592Z,83.50
2018-11-25T04:14:50.895Z,83.50
2018-11-25T04:17:19.267Z,83.60
2018-11-25T04:19:47.593Z,83.60
2018-11-25T04:22:15.973Z,83.70
2018-11-25T04:24:45.027Z,83.70
2018-11-25T04:27:13.416Z,83.80
2018-11-25T04:29:41.833Z,83.80
2018-11-25T04:32:10.149Z,83.80
2018-11-25T04:34:38.727Z,83.80
2018-11-25T04:37:07.219Z,83.70
2018-11-25T04:39:35.480Z,83.90
2018-11-25T04:42:03.803Z,83.90
2018-11-25T04:44:33.463Z,83.90
2018-11-25T04:47:01.900Z,83.90
2018-11-25T04:49:30.235Z,84.00
2018-11-25T04:51:58.807Z,84.10
2018-11-25T04:54:27.120Z,84.10
2018-11-25T04:56:55.406Z,84.10
2018-11-25T04:59:24.348Z,84.30
2018-11-25T05:01:53.042Z,84.30
2018-11-25T05:04:21.323Z,84.40
2018-11-25T05:06:49.601Z,84.40
2018-11-25T05:09:17.861Z,84.40
2018-11-25T05:11:46.569Z,84.40
2018-11-25T05:14:14.914Z,84.30
2018-11-25T05:16:43.374Z,84.30
2018-11-25T05:19:11.780Z,84.10
2018-11-25T05:21:40.157Z,84.40
2018-11-25T05:24:08.457Z,84.30
2018-11-25T05:26:36.765Z,84.40
2018-11-25T05:29:06.346Z,84.30
2018-11-25T05:31:34.706Z,84.30
2018-11-25T05:34:03.002Z,84.10
2018-11-25T05:36:31.311Z,83.90
2018-11-25T05:38:59.568Z,83.90
2018-11-25T05:41:27.864Z,83.90
2018-11-25T05:43:56.250Z,83.80
2018-11-25T05:46:24.525Z,83.90
2018-11-25T05:48:53.042Z,83.90
2018-11-25T05:51:21.345Z,83.90
2018-11-25T05:53:49.739Z,83.90
2018-11-25T05:56:18.077Z,83.80
2018-11-25T05:58:46.378Z,84.10
2018-11-25T06:01:14.684Z,84.10
2018-11-25T06:03:43.558Z,84.10
2018-11-25T06:06:11.842Z,84.10
2018-11-25T06:08:40.178Z,84.00
2018-11-25T06:11:08.878Z,84.00
2018-11-25T06:13:37.212Z,84.00
2018-11-25T06:16:05.863Z,84.00
2018-11-25T06:18:34.217Z,83.90
2018-11-25T06:21:02.617Z,83.90
2018-11-25T06:23:30.924Z,83.90
2018-11-25T06:25:59.348Z,83.80
2018-11-25T06:28:27.686Z,83.80
2018-11-25T06:30:56.120Z,83.90
2018-11-25T06:33:24.551Z,83.90
2018-11-25T06:35:53.020Z,83.90
2018-11-25T06:38:21.337Z,83.80
2018-11-25T06:40:49.753Z,83.80
2018-11-25T06:43:17.996Z,83.80
2018-11-25T06:45:46.278Z,83.70
2018-11-25T06:48:14.607Z,83.70
2018-11-25T06:50:43.081Z,83.70
2018-11-25T06:53:11.349Z,83.60
2018-11-25T06:55:39.918Z,83.40
2018-11-25T06:58:08.267Z,83.60
2018-11-25T07:00:36.639Z,83.50
2018-11-25T07:03:05.083Z,83.50
2018-11-25T07:05:34.579Z,83.40
2018-11-25T07:08:02.920Z,83.40
2018-11-25T07:10:31.255Z,83.40
2018-11-25T07:12:59.593Z,83.30
2018-11-25T07:15:27.876Z,83.40
2018-11-25T07:17:56.201Z,83.50
2018-11-25T07:20:24.460Z,83.40
2018-11-25T07:22:54.137Z,83.30
2018-11-25T07:25:23.240Z,83.10
2018-11-25T07:27:52.080Z,83.10
2018-11-25T07:30:23.426Z,83.10
2018-11-25T07:32:51.816Z,83.10
2018-11-25T07:35:20.353Z,83.20
2018-11-25T07:37:48.699Z,83.20
2018-11-25T07:40:18.158Z,83.20
2018-11-25T07:42:46.675Z,83.30
2018-11-25T07:45:18.855Z,83.50
2018-11-25T07:47:48.343Z,83.50
2018-11-25T07:50:16.796Z,83.80
2018-11-25T07:52:46.179Z,84.00
2018-11-25T07:55:15.626Z,84.00
2018-11-25T07:57:44.514Z,84.20
2018-11-25T08:00:16.039Z,84.20
2018-11-25T08:02:44.542Z,84.30
2018-11-25T08:05:14.825Z,84.10
2018-11-25T08:07:43.099Z,84.00
2018-11-25T08:10:13.356Z,84.00
2018-11-25T08:12:41.692Z,84.00
2018-11-25T08:15:11.991Z,83.90
2018-11-25T08:17:40.396Z,83.90
2018-11-25T08:20:10.858Z,83.90
2018-11-25T08:22:39.258Z,83.90
2018-11-25T08:25:10.104Z,84.00
2018-11-25T08:27:38.389Z,84.00
2018-11-25T08:30:09.236Z,84.00
2018-11-25T08:32:37.509Z,84.10
2018-11-25T08:35:06.958Z,84.20
2018-11-25T08:37:35.270Z,84.10
2018-11-25T08:40:03.903Z,84.00
2018-11-25T08:42:32.381Z,83.90
2018-11-25T08:45:00.657Z,83.90
2018-11-25T08:47:28.953Z,84.00
2018-11-25T08:49:57.254Z,84.00
2018-11-25T08:52:25.505Z,84.00
2018-11-25T08:54:54.932Z,84.10
2018-11-25T08:57:22.134Z,84.00
2018-11-25T08:59:50.783Z,84.00
2018-11-25T09:02:19.342Z,84.00
2018-11-25T09:04:47.710Z,84.00
2018-11-25T09:07:15.987Z,84.00
2018-11-25T09:09:44.340Z,83.90
2018-11-25T09:12:12.683Z,84.00
2018-11-25T09:14:40.940Z,83.90
2018-11-25T09:17:10.492Z,83.90
2018-11-25T09:19:38.787Z,83.80
2018-11-25T09:22:07.069Z,84.00
2018-11-25T09:24:35.464Z,84.00
2018-11-25T09:27:03.853Z,84.00
2018-11-25T09:29:32.099Z,84.20
2018-11-25T09:32:00.502Z,84.20
2018-11-25T09:34:28.802Z,84.30
2018-11-25T09:36:57.254Z,84.30
2018-11-25T09:39:25.525Z,84.00
2018-11-25T09:41:53.795Z,84.10
2018-11-25T09:44:22.207Z,83.80
2018-11-25T09:46:50.503Z,83.70
2018-11-25T09:49:19.084Z,83.50
2018-11-25T09:51:47.398Z,83.30
2018-11-25T09:54:15.656Z,83.30
2018-11-25T09:56:44.046Z,83.30
2018-11-25T09:59:12.351Z,83.20
2018-11-25T10:01:40.965Z,83.30
2018-11-25T10:04:09.380Z,83.30
2018-11-25T10:06:38.089Z,83.40
2018-11-25T10:09:08.535Z,83.50
2018-11-25T10:11:37.079Z,83.40
2018-11-25T10:14:05.740Z,83.40
2018-11-25T10:16:34.599Z,83.40
2018-11-25T10:19:03.391Z,83.50
2018-11-25T10:21:32.954Z,83.50
2018-11-25T10:24:01.490Z,83.60
2018-11-25T10:26:29.837Z,83.70
2018-11-25T10:28:58.116Z,83.70
2018-11-25T10:31:26.564Z,83.60
2018-11-25T10:33:54.876Z,83.50
2018-11-25T10:36:23.063Z,83.30
2018-11-25T10:38:51.428Z,83.20
2018-11-25T10:41:20.410Z,83.10
2018-11-25T10:43:48.836Z,82.90
2018-11-25T10:46:18.232Z,82.90
2018-11-25T10:48:46.480Z,82.90
2018-11-25T10:51:14.842Z,82.60
2018-11-25T10:53:43.232Z,82.40
2018-11-25T10:56:11.400Z,82.40
2018-11-25T10:58:39.748Z,82.30
2018-11-25T11:01:13.442Z,82.30
2018-11-25T11:03:47.792Z,82.20
2018-11-25T11:06:21.626Z,82.20
2018-11-25T11:08:50.069Z,81.90
2018-11-25T11:11:18.660Z,81.70
2018-11-25T11:13:47.524Z,81.40
2018-11-25T11:16:16.149Z,81.30
2018-11-25T11:18:44.814Z,81.30
2018-11-25T11:21:13.247Z,81.10
2018-11-25T11:23:41.876Z,81.20
2018-11-25T11:26:27.234Z,81.40
2018-11-25T11:28:56.292Z,81.30
2018-11-25T11:31:24.873Z,81.40
2018-11-25T11:33:53.298Z,81.40
2018-11-25T11:36:21.716Z,80.90
2018-11-25T11:38:50.147Z,80.70
2018-11-25T11:41:18.602Z,80.70
2018-11-25T11:43:47.025Z,80.50
2018-11-25T11:46:15.361Z,80.40
2018-11-25T11:48:43.879Z,80.70
2018-11-25T11:51:12.200Z,80.80
2018-11-25T11:53:40.663Z,80.40
2018-11-25T11:56:09.013Z,80.20
2018-11-25T11:58:37.415Z,80.40
2018-11-25T12:01:07.736Z,80.70
2018-11-25T12:03:36.838Z,80.70
2018-11-25T12:06:05.491Z,80.20
2018-11-25T12:08:33.824Z,79.70
2018-11-25T12:11:02.359Z,79.80
2018-11-25T12:13:30.733Z,79.00
2018-11-25T12:16:00.320Z,78.80
2018-11-25T12:18:28.744Z,78.50
2018-11-25T12:20:57.693Z,78.60
2018-11-25T12:23:26.036Z,78.20
2018-11-25T12:25:54.752Z,78.60
2018-11-25T12:28:23.101Z,78.80
2018-11-25T12:30:51.563Z,79.10
2018-11-25T12:33:20.077Z,78.50
2018-11-25T12:35:48.566Z,78.30
2018-11-25T12:38:16.914Z,78.50
2018-11-25T12:40:45.422Z,78.40
2018-11-25T12:43:13.763Z,78.30
2018-11-25T12:45:42.108Z,77.90
2018-11-25T12:48:10.446Z,77.60
2018-11-25T12:50:38.743Z,77.60
2018-11-25T12:53:07.266Z,77.70
2018-11-25T12:55:35.619Z,78.10
2018-11-25T12:58:04.275Z,77.70
2018-11-25T13:00:36.032Z,77.40
2018-11-25T13:03:04.357Z,77.30
2018-11-25T13:05:32.780Z,77.50
2018-11-25T13:08:01.323Z,77.70
2018-11-25T13:10:30.707Z,78.10
2018-11-25T13:12:59.093Z,78.60
2018-11-25T13:15:27.470Z,78.40
2018-11-25T13:17:56.790Z,78.60
2018-11-25T13:20:25.135Z,78.50
2018-11-25T13:22:53.507Z,78.30
2018-11-25T13:25:21.844Z,78.30
2018-11-25T13:27:50.259Z,77.90
2018-11-25T13:30:22.897Z,77.70
2018-11-25T13:32:53.732Z,77.90
2018-11-25T13:35:22.685Z,78.40
2018-11-25T13:37:51.255Z,78.30
2018-11-25T13:40:20.694Z,78.30
2018-11-25T13:42:49.155Z,78.20
2018-11-25T13:45:18.629Z,78.50
2018-11-25T13:47:47.674Z,78.70
2018-11-25T13:50:16.433Z,78.60
2018-11-25T13:52:45.316Z,78.60
2018-11-25T13:55:18.251Z,78.20
2018-11-25T13:57:47.670Z,78.40
2018-11-25T14:00:20.603Z,78.50
2018-11-25T14:02:49.781Z,78.60
2018-11-25T14:05:18.687Z,78.70
2018-11-25T14:07:47.400Z,78.80
2018-11-25T14:10:19.347Z,78.90
2018-11-25T14:12:47.907Z,78.50
2018-11-25T14:15:16.353Z,78.50
2018-11-25T14:17:46.067Z,78.40
2018-11-25T14:20:14.575Z,78.70
2018-11-25T14:22:43.287Z,78.70
2018-11-25T14:25:13.326Z,78.50
2018-11-25T14:27:50.233Z,78.30
2018-11-25T14:30:21.521Z,78.40
2018-11-25T14:32:50.584Z,78.80
2018-11-25T14:35:19.039Z,79.00
2018-11-25T14:37:47.367Z,79.10
2018-11-25T14:40:17.228Z,79.10
2018-11-25T14:42:45.526Z,79.10
2018-11-25T14:45:15.836Z,79.00
2018-11-25T14:47:44.097Z,79.00
2018-11-25T14:50:16.644Z,79.10
2018-11-25T14:52:46.325Z,79.10
2018-11-25T14:55:15.430Z,79.20
2018-11-25T14:57:43.890Z,79.20
2018-11-25T15:00:16.490Z,79.30
2018-11-25T15:02:46.221Z,79.30
2018-11-25T15:05:19.910Z,79.30
2018-11-25T15:07:48.996Z,79.30
2018-11-25T15:10:17.741Z,79.30
2018-11-25T15:12:46.387Z,79.30
2018-11-25T15:15:15.471Z,79.30
2018-11-25T15:17:44.640Z,79.30
2018-11-25T15:20:13.403Z,79.20
2018-11-25T15:22:43.947Z,79.20
2018-11-25T15:25:16.935Z,79.30
2018-11-25T15:27:45.647Z,79.30
2018-11-25T15:30:14.157Z,79.30
2018-11-25T15:32:43.015Z,79.30
2018-11-25T15:35:13.294Z,79.40
2018-11-25T15:37:43.520Z,79.40
2018-11-25T15:40:18.882Z,79.60
2018-11-25T15:42:47.468Z,79.60
2018-11-25T15:45:16.556Z,79.70
2018-11-25T15:47:47.827Z,79.70
2018-11-25T15:50:19.493Z,79.80
2018-11-25T15:52:48.606Z,79.80
2018-11-25T15:55:17.358Z,79.90
2018-11-25T15:57:45.619Z,79.90
2018-11-25T16:00:16.327Z,79.90
2018-11-25T16:02:44.707Z,79.90
2018-11-25T16:05:21.620Z,80.00
2018-11-25T16:07:50.673Z,80.00
2018-11-25T16:10:19.124Z,80.20
2018-11-25T16:12:48.976Z,80.10
2018-11-25T16:15:18.592Z,80.20
2018-11-25T16:17:47.001Z,80.20
2018-11-25T16:20:16.497Z,80.20
2018-11-25T16:22:47.755Z,80.20
2018-11-25T16:25:19.996Z,80.40
2018-11-25T16:27:50.348Z,80.50
2018-11-25T16:30:18.813Z,80.40
2018-11-25T16:32:47.215Z,80.50
2018-11-25T16:35:15.593Z,80.40
2018-11-25T16:37:43.925Z,80.50
2018-11-25T16:40:15.592Z,80.50
2018-11-25T16:42:44.017Z,80.50
2018-11-25T16:45:15.979Z,80.50
2018-11-25T16:47:44.257Z,80.50
2018-11-25T16:50:14.202Z,80.50
2018-11-25T16:52:42.588Z,80.40
2018-11-25T16:55:11.962Z,80.50
2018-11-25T16:57:40.600Z,80.60
2018-11-25T17:00:13.497Z,80.60
2018-11-25T17:02:41.761Z,80.60
2018-11-25T17:05:18.560Z,80.60
2018-11-25T17:07:48.552Z,80.50
2018-11-25T17:10:17.064Z,80.60
2018-11-25T17:12:45.497Z,80.60
2018-11-25T17:15:16.659Z,80.70
2018-11-25T17:17:44.979Z,80.70
2018-11-25T17:20:13.264Z,80.70
2018-11-25T17:22:41.535Z,80.60
2018-11-25T17:25:11.998Z,80.60
2018-11-25T17:27:39.705Z,80.60
2018-11-25T17:30:13.724Z,80.60
2018-11-25T17:32:42.711Z,80.40
2018-11-25T17:35:17.037Z,80.30
2018-11-25T17:37:45.696Z,80.20
2018-11-25T17:40:14.686Z,80.30
2018-11-25T17:42:43.434Z,80.20
2018-11-25T17:45:12.996Z,80.30
2018-11-25T17:47:42.587Z,80.30
2018-11-25T17:50:16.491Z,80.40
2018-11-25T17:52:45.650Z,80.40
2018-11-25T17:55:14.719Z,80.30
2018-11-25T17:57:43.457Z,80.30
2018-11-25T18:00:17.772Z,80.40
2018-11-25T18:02:47.572Z,80.40
2018-11-25T18:05:17.756Z,80.30
2018-11-25T18:07:47.313Z,80.20
2018-11-25T18:10:16.479Z,80.20
2018-11-25T18:12:45.038Z,80.20
2018-11-25T18:15:16.045Z,80.10
2018-11-25T18:17:50.984Z,80.10
2018-11-25T18:20:20.859Z,80.10
2018-11-25T18:22:49.930Z,80.20
2018-11-25T18:25:18.535Z,80.20
2018-11-25T18:27:47.154Z,80.10
2018-11-25T18:30:16.902Z,80.20
2018-11-25T18:32:45.972Z,80.10
2018-11-25T18:35:14.550Z,80.10
2018-11-25T18:37:43.189Z,80.10
2018-11-25T18:40:13.169Z,80.20
2018-11-25T18:42:42.217Z,80.10
2018-11-25T18:45:16.341Z,80.10
2018-11-25T18:47:46.481Z,80.00
2018-11-25T18:50:15.733Z,79.90
2018-11-25T18:52:46.042Z,80.00
2018-11-25T18:55:13.279Z,80.00
2018-11-25T18:57:42.163Z,80.00
2018-11-25T19:00:16.305Z,80.00
2018-11-25T19:02:45.235Z,80.10
2018-11-25T19:05:14.747Z,80.20
2018-11-25T19:07:44.860Z,80.20
2018-11-25T19:10:16.938Z,80.20
2018-11-25T19:12:47.171Z,80.20
2018-11-25T19:15:19.723Z,80.20
2018-11-25T19:17:48.888Z,80.20
2018-11-25T19:20:26.273Z,80.30
2018-11-25T19:22:56.574Z,80.30
2018-11-25T19:25:25.506Z,80.20
2018-11-25T19:27:56.247Z,80.20
2018-11-25T19:30:26.810Z,80.30
2018-11-25T19:32:54.099Z,80.30
2018-11-25T19:35:23.173Z,80.40
2018-11-25T19:37:52.627Z,80.30
2018-11-25T19:40:25.099Z,80.40
2018-11-25T19:42:54.312Z,80.40
2018-11-25T19:45:25.170Z,80.40
2018-11-25T19:47:54.640Z,80.40
2018-11-25T19:50:30.877Z,80.40
2018-11-25T19:52:59.337Z,80.30
2018-11-25T19:55:27.836Z,80.20
2018-11-25T19:57:56.901Z,80.10
2018-11-25T20:00:26.170Z,80.10
2018-11-25T20:02:55.374Z,80.10
2018-11-25T20:05:25.309Z,80.00
2018-11-25T20:07:53.761Z,80.00
2018-11-25T20:10:23.851Z,80.20
2018-11-25T20:12:55.549Z,80.20
2018-11-25T20:15:25.185Z,80.30
2018-11-25T20:17:54.789Z,80.30
2018-11-25T20:20:25.731Z,80.30
2018-11-25T20:22:55.002Z,80.30
2018-11-25T20:25:23.762Z,80.40
2018-11-25T20:27:54.418Z,80.40
2018-11-25T20:30:26.188Z,80.40
2018-11-25T20:33:00.211Z,80.40
2018-11-25T20:35:29.519Z,80.20
2018-11-25T20:38:03.410Z,80.00
2018-11-25T20:40:32.855Z,79.90
2018-11-25T20:43:01.806Z,80.00
2018-11-25T20:45:39.029Z,80.00
2018-11-25T20:48:05.139Z,80.00
2018-11-25T20:50:33.723Z,80.10
2018-11-25T20:53:07.473Z,80.10
2018-11-25T20:55:36.792Z,80.20
2018-11-25T20:58:07.282Z,80.10
2018-11-25T21:00:37.069Z,80.10
2018-11-25T21:03:08.323Z,80.10
2018-11-25T21:05:36.738Z,80.10
2018-11-25T21:08:06.324Z,80.00
2018-11-25T21:10:34.748Z,80.00
2018-11-25T21:13:03.232Z,80.00
2018-11-25T21:15:32.536Z,79.90
2018-11-25T21:18:01.882Z,80.00
2018-11-25T21:20:31.332Z,80.00
2018-11-25T21:22:59.775Z,80.10
2018-11-25T21:25:29.256Z,80.00
2018-11-25T21:27:57.618Z,79.80
2018-11-25T21:30:27.234Z,79.90
2018-11-25T21:32:56.952Z,79.90
2018-11-25T21:35:25.756Z,79.70
2018-11-25T21:37:54.082Z,79.60
2018-11-25T21:40:23.690Z,79.70
2018-11-25T21:42:52.203Z,79.40
2018-11-25T21:45:21.190Z,79.40
2018-11-25T21:47:49.974Z,79.40
2018-11-25T21:50:21.846Z,79.40
2018-11-25T21:52:50.167Z,79.60
2018-11-25T21:55:19.049Z,79.60
2018-11-25T21:57:47.383Z,79.60
2018-11-25T22:00:17.817Z,79.50
2018-11-25T22:02:46.418Z,79.50
2018-11-25T22:05:15.124Z,79.40
2018-11-25T22:07:43.500Z,79.30
2018-11-25T22:10:14.037Z,79.20
2018-11-25T22:12:42.971Z,79.40
2018-11-25T22:15:12.922Z,79.50
2018-11-25T22:17:41.994Z,79.50
2018-11-25T22:20:11.337Z,79.70
2018-11-25T22:22:39.772Z,79.70
2018-11-25T22:25:09.244Z,79.80
2018-11-25T22:27:37.519Z,79.90
2018-11-25T22:30:09.353Z,79.90
2018-11-25T22:32:37.681Z,80.00
2018-11-25T22:35:10.050Z,79.90
2018-11-25T22:37:38.539Z,80.00
2018-11-25T22:40:08.878Z,80.20
2018-11-25T22:42:37.985Z,80.20
2018-11-25T22:45:08.221Z,80.20
2018-11-25T22:47:36.831Z,80.20
2018-11-25T22:50:13.940Z,80.10
2018-11-25T22:52:42.430Z,80.10
2018-11-25T22:55:13.342Z,80.20
2018-11-25T22:57:41.691Z,80.10
2018-11-25T23:00:41.233Z,80.10
2018-11-25T23:03:09.689Z,80.00
2018-11-25T23:05:49.972Z,80.00
2018-11-25T23:08:18.331Z,80.00
2018-11-25T23:10:46.750Z,80.10
2018-11-25T23:13:15.060Z,80.10
2018-11-25T23:15:43.340Z,80.30
2018-11-25T23:18:11.705Z,80.30
2018-11-25T23:20:40.131Z,80.40
2018-11-25T23:23:08.455Z,80.40
2018-11-25T23:25:36.963Z,80.60
2018-11-25T23:28:05.936Z,80.60
2018-11-25T23:30:34.228Z,80.60
2018-11-25T23:33:02.558Z,80.70
2018-11-25T23:35:32.102Z,80.60
2018-11-25T23:38:00.522Z,80.50
2018-11-25T23:40:28.959Z,80.60
2018-11-25T23:42:57.555Z,80.60
2018-11-25T23:45:25.875Z,80.60
2018-11-25T23:47:54.163Z,80.50
2018-11-25T23:50:22.588Z,80.20
2018-11-25T23:52:50.919Z,79.80
2018-11-25T23:55:19.193Z,79.40
2018-11-25T23:57:47.484Z,79.40
